sensor_id;sensor_type;location;lat;lon;timestamp;temperature;humidity
5605;DHT22;9297;47.258;11.362;2023-11-21T00:01:24;8.40;99.90
5605;DHT22;9297;47.258;11.362;2023-11-21T00:03:53;8.40;99.90
5605;DHT22;9297;47.258;11.362;2023-11-21T00:06:20;8.50;99.90
5605;DHT22;9297;47.258;11.362;2023-11-21T00:08:47;8.50;99.90
5605;DHT22;9297;47.258;11.362;2023-11-21T00:11:14;8.50;99.90
5605;DHT22;9297;47.258;11.362;2023-11-21T00:13:41;8.60;99.90
5605;DHT22;9297;47.258;11.362;2023-11-21T00:16:08;8.50;99.90
5605;DHT22;9297;47.258;11.362;2023-11-21T00:18:36;8.60;99.90
5605;DHT22;9297;47.258;11.362;2023-11-21T00:21:05;8.60;99.90
5605;DHT22;9297;47.258;11.362;2023-11-21T00:23:32;8.60;99.90
5605;DHT22;9297;47.258;11.362;2023-11-21T00:25:59;8.60;99.90
5605;DHT22;9297;47.258;11.362;2023-11-21T00:28:26;8.60;99.90
5605;DHT22;9297;47.258;11.362;2023-11-21T00:30:53;8.60;99.90
5605;DHT22;9297;47.258;11.362;2023-11-21T00:33:21;8.70;99.90
5605;DHT22;9297;47.258;11.362;2023-11-21T00:35:48;8.70;99.90
5605;DHT22;9297;47.258;11.362;2023-11-21T00:38:16;8.70;99.90
5605;DHT22;9297;47.258;11.362;2023-11-21T00:40:44;8.70;99.90
5605;DHT22;9297;47.258;11.362;2023-11-21T00:43:11;8.70;99.90
5605;DHT22;9297;47.258;11.362;2023-11-21T00:45:38;8.70;99.90
5605;DHT22;9297;47.258;11.362;2023-11-21T00:48:05;8.70;99.90
5605;DHT22;9297;47.258;11.362;2023-11-21T00:50:32;8.70;99.90
5605;DHT22;9297;47.258;11.362;2023-11-21T00:52:59;8.70;99.90
5605;DHT22;9297;47.258;11.362;2023-11-21T00:55:28;8.70;99.90
5605;DHT22;9297;47.258;11.362;2023-11-21T00:57:55;8.70;99.90
5605;DHT22;9297;47.258;11.362;2023-11-21T01:00:22;8.60;99.90
5605;DHT22;9297;47.258;11.362;2023-11-21T01:02:49;8.70;99.90
5605;DHT22;9297;47.258;11.362;2023-11-21T01:05:17;8.60;99.90
5605;DHT22;9297;47.258;11.362;2023-11-21T01:07:44;8.70;99.90
5605;DHT22;9297;47.258;11.362;2023-11-21T01:10:11;8.70;99.90
5605;DHT22;9297;47.258;11.362;2023-11-21T01:12:40;8.60;99.90
5605;DHT22;9297;47.258;11.362;2023-11-21T01:15:07;8.60;99.90
5605;DHT22;9297;47.258;11.362;2023-11-21T01:17:35;8.50;99.90
5605;DHT22;9297;47.258;11.362;2023-11-21T01:20:03;8.50;99.90
5605;DHT22;9297;47.258;11.362;2023-11-21T01:22:30;8.50;99.90
5605;DHT22;9297;47.258;11.362;2023-11-21T01:24:57;8.60;99.90
5605;DHT22;9297;47.258;11.362;2023-11-21T01:27:25;8.50;99.90
5605;DHT22;9297;47.258;11.362;2023-11-21T01:29:54;8.50;99.90
5605;DHT22;9297;47.258;11.362;2023-11-21T01:32:21;8.60;99.90
5605;DHT22;9297;47.258;11.362;2023-11-21T01:34:50;8.60;99.90
5605;DHT22;9297;47.258;11.362;2023-11-21T01:37:18;8.60;99.90
5605;DHT22;9297;47.258;11.362;2023-11-21T01:39:45;8.60;99.90
5605;DHT22;9297;47.258;11.362;2023-11-21T01:42:12;8.60;99.90
5605;DHT22;9297;47.258;11.362;2023-11-21T01:44:39;8.60;99.90
5605;DHT22;9297;47.258;11.362;2023-11-21T01:47:08;8.70;99.90
5605;DHT22;9297;47.258;11.362;2023-11-21T01:49:36;8.70;99.90
5605;DHT22;9297;47.258;11.362;2023-11-21T01:52:04;8.60;99.90
5605;DHT22;9297;47.258;11.362;2023-11-21T01:54:31;8.60;99.90
5605;DHT22;9297;47.258;11.362;2023-11-21T01:56:59;8.60;99.90
5605;DHT22;9297;47.258;11.362;2023-11-21T01:59:28;8.60;99.90
5605;DHT22;9297;47.258;11.362;2023-11-21T02:01:56;8.60;99.90
5605;DHT22;9297;47.258;11.362;2023-11-21T02:04:25;8.60;99.90
5605;DHT22;9297;47.258;11.362;2023-11-21T02:06:52;8.60;99.90
5605;DHT22;9297;47.258;11.362;2023-11-21T02:09:24;8.60;99.90
5605;DHT22;9297;47.258;11.362;2023-11-21T02:11:51;8.60;99.90
5605;DHT22;9297;47.258;11.362;2023-11-21T02:14:19;8.60;99.90
5605;DHT22;9297;47.258;11.362;2023-11-21T02:16:47;8.60;99.90
5605;DHT22;9297;47.258;11.362;2023-11-21T02:19:18;8.50;99.90
5605;DHT22;9297;47.258;11.362;2023-11-21T02:21:47;8.60;99.90
5605;DHT22;9297;47.258;11.362;2023-11-21T02:24:15;8.60;99.90
5605;DHT22;9297;47.258;11.362;2023-11-21T02:26:42;8.50;99.90
5605;DHT22;9297;47.258;11.362;2023-11-21T02:29:10;8.50;99.90
5605;DHT22;9297;47.258;11.362;2023-11-21T02:31:37;8.50;99.90
5605;DHT22;9297;47.258;11.362;2023-11-21T02:34:05;8.50;99.90
5605;DHT22;9297;47.258;11.362;2023-11-21T02:36:32;8.40;99.90
5605;DHT22;9297;47.258;11.362;2023-11-21T02:38:59;8.40;99.90
5605;DHT22;9297;47.258;11.362;2023-11-21T02:41:27;8.50;99.90
5605;DHT22;9297;47.258;11.362;2023-11-21T02:43:55;8.50;99.90
5605;DHT22;9297;47.258;11.362;2023-11-21T02:46:22;8.40;99.90
5605;DHT22;9297;47.258;11.362;2023-11-21T02:48:50;8.40;99.90
5605;DHT22;9297;47.258;11.362;2023-11-21T02:51:17;8.50;99.90
5605;DHT22;9297;47.258;11.362;2023-11-21T02:53:47;8.40;99.90
5605;DHT22;9297;47.258;11.362;2023-11-21T02:56:14;8.40;99.90
5605;DHT22;9297;47.258;11.362;2023-11-21T02:58:44;8.30;99.90
5605;DHT22;9297;47.258;11.362;2023-11-21T03:01:11;8.30;99.90
5605;DHT22;9297;47.258;11.362;2023-11-21T03:03:39;8.20;99.90
5605;DHT22;9297;47.258;11.362;2023-11-21T03:06:06;8.20;99.90
5605;DHT22;9297;47.258;11.362;2023-11-21T03:08:33;8.20;99.90
5605;DHT22;9297;47.258;11.362;2023-11-21T03:11:01;8.20;99.90
5605;DHT22;9297;47.258;11.362;2023-11-21T03:13:28;8.20;99.90
5605;DHT22;9297;47.258;11.362;2023-11-21T03:15:56;8.20;99.90
5605;DHT22;9297;47.258;11.362;2023-11-21T03:18:24;8.20;99.90
5605;DHT22;9297;47.258;11.362;2023-11-21T03:20:52;8.10;99.90
5605;DHT22;9297;47.258;11.362;2023-11-21T03:23:20;8.10;99.90
5605;DHT22;9297;47.258;11.362;2023-11-21T03:25:47;8.00;99.90
5605;DHT22;9297;47.258;11.362;2023-11-21T03:28:14;8.10;99.90
5605;DHT22;9297;47.258;11.362;2023-11-21T03:30:41;8.00;99.90
5605;DHT22;9297;47.258;11.362;2023-11-21T03:33:10;8.00;99.90
5605;DHT22;9297;47.258;11.362;2023-11-21T03:35:38;7.90;99.90
5605;DHT22;9297;47.258;11.362;2023-11-21T03:38:05;7.90;99.90
5605;DHT22;9297;47.258;11.362;2023-11-21T03:40:32;7.80;99.90
5605;DHT22;9297;47.258;11.362;2023-11-21T03:42:59;7.80;99.90
5605;DHT22;9297;47.258;11.362;2023-11-21T03:45:26;7.70;99.90
5605;DHT22;9297;47.258;11.362;2023-11-21T03:47:53;7.70;99.90
5605;DHT22;9297;47.258;11.362;2023-11-21T03:50:22;7.70;99.90
5605;DHT22;9297;47.258;11.362;2023-11-21T03:52:49;7.70;99.90
5605;DHT22;9297;47.258;11.362;2023-11-21T03:55:16;7.60;99.90
5605;DHT22;9297;47.258;11.362;2023-11-21T03:57:44;7.70;99.90
5605;DHT22;9297;47.258;11.362;2023-11-21T04:00:12;7.70;99.90
5605;DHT22;9297;47.258;11.362;2023-11-21T04:02:39;7.70;99.90
5605;DHT22;9297;47.258;11.362;2023-11-21T04:05:07;7.70;99.90
5605;DHT22;9297;47.258;11.362;2023-11-21T04:07:35;7.70;99.90
5605;DHT22;9297;47.258;11.362;2023-11-21T04:10:03;7.70;99.90
5605;DHT22;9297;47.258;11.362;2023-11-21T04:12:30;7.70;99.90
5605;DHT22;9297;47.258;11.362;2023-11-21T04:14:57;7.70;99.90
5605;DHT22;9297;47.258;11.362;2023-11-21T04:17:25;7.60;99.90
5605;DHT22;9297;47.258;11.362;2023-11-21T04:19:52;7.70;99.90
5605;DHT22;9297;47.258;11.362;2023-11-21T04:22:19;7.70;99.90
5605;DHT22;9297;47.258;11.362;2023-11-21T04:24:47;7.60;99.90
5605;DHT22;9297;47.258;11.362;2023-11-21T04:27:15;7.70;99.90
5605;DHT22;9297;47.258;11.362;2023-11-21T04:29:42;7.60;99.90
5605;DHT22;9297;47.258;11.362;2023-11-21T04:32:09;7.60;99.90
5605;DHT22;9297;47.258;11.362;2023-11-21T04:34:36;7.60;99.90
5605;DHT22;9297;47.258;11.362;2023-11-21T04:37:03;7.70;99.90
5605;DHT22;9297;47.258;11.362;2023-11-21T04:39:31;7.60;99.90
5605;DHT22;9297;47.258;11.362;2023-11-21T04:41:59;7.60;99.90
5605;DHT22;9297;47.258;11.362;2023-11-21T04:44:26;7.60;99.90
5605;DHT22;9297;47.258;11.362;2023-11-21T04:46:53;7.50;99.90
5605;DHT22;9297;47.258;11.362;2023-11-21T04:49:21;7.50;99.90
5605;DHT22;9297;47.258;11.362;2023-11-21T04:51:48;7.40;99.90
5605;DHT22;9297;47.258;11.362;2023-11-21T04:54:15;7.30;99.90
5605;DHT22;9297;47.258;11.362;2023-11-21T04:56:42;7.30;99.90
5605;DHT22;9297;47.258;11.362;2023-11-21T04:59:10;7.50;99.90
5605;DHT22;9297;47.258;11.362;2023-11-21T05:01:37;7.50;99.90
5605;DHT22;9297;47.258;11.362;2023-11-21T05:04:05;7.40;99.90
5605;DHT22;9297;47.258;11.362;2023-11-21T05:06:32;7.50;99.90
5605;DHT22;9297;47.258;11.362;2023-11-21T05:09:00;7.50;99.90
5605;DHT22;9297;47.258;11.362;2023-11-21T05:11:28;7.50;99.90
5605;DHT22;9297;47.258;11.362;2023-11-21T05:13:55;7.50;99.90
5605;DHT22;9297;47.258;11.362;2023-11-21T05:16:27;7.50;99.90
5605;DHT22;9297;47.258;11.362;2023-11-21T05:18:54;7.50;99.90
5605;DHT22;9297;47.258;11.362;2023-11-21T05:21:21;7.50;99.90
5605;DHT22;9297;47.258;11.362;2023-11-21T05:23:48;7.50;99.90
5605;DHT22;9297;47.258;11.362;2023-11-21T05:26:15;7.60;99.90
5605;DHT22;9297;47.258;11.362;2023-11-21T05:28:42;7.60;99.90
5605;DHT22;9297;47.258;11.362;2023-11-21T05:31:11;7.50;99.90
5605;DHT22;9297;47.258;11.362;2023-11-21T05:33:47;7.50;99.90
5605;DHT22;9297;47.258;11.362;2023-11-21T05:36:14;7.50;99.90
5605;DHT22;9297;47.258;11.362;2023-11-21T05:38:41;7.60;99.90
5605;DHT22;9297;47.258;11.362;2023-11-21T05:41:09;7.50;99.90
5605;DHT22;9297;47.258;11.362;2023-11-21T05:43:37;7.50;99.90
5605;DHT22;9297;47.258;11.362;2023-11-21T05:46:04;7.40;99.90
5605;DHT22;9297;47.258;11.362;2023-11-21T05:48:31;7.40;99.90
5605;DHT22;9297;47.258;11.362;2023-11-21T05:51:00;7.40;99.90
5605;DHT22;9297;47.258;11.362;2023-11-21T05:53:27;7.30;99.90
5605;DHT22;9297;47.258;11.362;2023-11-21T05:55:54;9.30;99.90
5605;DHT22;9297;47.258;11.362;2023-11-21T05:58:21;9.40;99.90
5605;DHT22;9297;47.258;11.362;2023-11-21T06:00:49;9.80;99.90
5605;DHT22;9297;47.258;11.362;2023-11-21T06:03:16;11.10;99.90
5605;DHT22;9297;47.258;11.362;2023-11-21T06:05:43;9.90;94.20
5605;DHT22;9297;47.258;11.362;2023-11-21T06:08:12;9.20;96.20
5605;DHT22;9297;47.258;11.362;2023-11-21T06:10:39;8.80;98.70
5605;DHT22;9297;47.258;11.362;2023-11-21T06:13:06;8.50;99.90
5605;DHT22;9297;47.258;11.362;2023-11-21T06:15:33;8.20;99.90
5605;DHT22;9297;47.258;11.362;2023-11-21T06:18:04;8.10;99.90
5605;DHT22;9297;47.258;11.362;2023-11-21T06:20:40;8.00;99.90
5605;DHT22;9297;47.258;11.362;2023-11-21T06:23:09;7.80;99.90
5605;DHT22;9297;47.258;11.362;2023-11-21T06:25:59;7.70;99.90
5605;DHT22;9297;47.258;11.362;2023-11-21T06:28:28;7.70;99.90
5605;DHT22;9297;47.258;11.362;2023-11-21T06:30:56;7.70;99.90
5605;DHT22;9297;47.258;11.362;2023-11-21T06:33:26;7.70;99.90
5605;DHT22;9297;47.258;11.362;2023-11-21T06:38:45;7.60;99.90
5605;DHT22;9297;47.258;11.362;2023-11-21T06:41:15;7.70;99.90
5605;DHT22;9297;47.258;11.362;2023-11-21T06:43:43;7.80;99.90
5605;DHT22;9297;47.258;11.362;2023-11-21T06:46:11;7.80;99.90
5605;DHT22;9297;47.258;11.362;2023-11-21T06:48:38;7.70;99.90
5605;DHT22;9297;47.258;11.362;2023-11-21T06:51:05;7.70;99.90
5605;DHT22;9297;47.258;11.362;2023-11-21T06:53:33;7.70;99.90
5605;DHT22;9297;47.258;11.362;2023-11-21T06:56:02;7.70;99.90
5605;DHT22;9297;47.258;11.362;2023-11-21T06:58:32;7.70;99.90
5605;DHT22;9297;47.258;11.362;2023-11-21T07:00:59;7.80;99.90
5605;DHT22;9297;47.258;11.362;2023-11-21T07:03:26;7.90;99.90
5605;DHT22;9297;47.258;11.362;2023-11-21T07:05:53;7.90;99.90
5605;DHT22;9297;47.258;11.362;2023-11-21T07:08:21;8.00;99.90
5605;DHT22;9297;47.258;11.362;2023-11-21T07:10:48;8.00;99.90
5605;DHT22;9297;47.258;11.362;2023-11-21T07:13:15;8.10;99.90
5605;DHT22;9297;47.258;11.362;2023-11-21T07:15:43;8.10;99.90
5605;DHT22;9297;47.258;11.362;2023-11-21T07:18:11;8.20;99.90
5605;DHT22;9297;47.258;11.362;2023-11-21T07:20:39;8.20;99.90
5605;DHT22;9297;47.258;11.362;2023-11-21T07:23:06;8.20;99.90
5605;DHT22;9297;47.258;11.362;2023-11-21T07:25:33;8.20;99.90
5605;DHT22;9297;47.258;11.362;2023-11-21T07:28:00;8.10;99.90
5605;DHT22;9297;47.258;11.362;2023-11-21T07:30:27;8.10;99.90
5605;DHT22;9297;47.258;11.362;2023-11-21T07:32:56;8.10;99.90
5605;DHT22;9297;47.258;11.362;2023-11-21T07:35:23;8.10;99.90
5605;DHT22;9297;47.258;11.362;2023-11-21T07:37:50;8.00;99.90
5605;DHT22;9297;47.258;11.362;2023-11-21T07:40:18;8.00;99.90
5605;DHT22;9297;47.258;11.362;2023-11-21T07:42:45;8.10;99.90
5605;DHT22;9297;47.258;11.362;2023-11-21T07:45:12;8.20;99.90
5605;DHT22;9297;47.258;11.362;2023-11-21T07:47:43;8.20;99.90
5605;DHT22;9297;47.258;11.362;2023-11-21T07:50:12;8.30;99.90
5605;DHT22;9297;47.258;11.362;2023-11-21T07:52:39;8.30;99.90
5605;DHT22;9297;47.258;11.362;2023-11-21T07:55:07;8.30;99.90
5605;DHT22;9297;47.258;11.362;2023-11-21T07:57:34;8.30;99.90
5605;DHT22;9297;47.258;11.362;2023-11-21T08:00:01;8.40;99.90
5605;DHT22;9297;47.258;11.362;2023-11-21T08:02:30;8.40;99.90
5605;DHT22;9297;47.258;11.362;2023-11-21T08:04:58;8.40;99.90
5605;DHT22;9297;47.258;11.362;2023-11-21T08:07:27;8.40;99.90
5605;DHT22;9297;47.258;11.362;2023-11-21T08:09:54;8.50;99.90
5605;DHT22;9297;47.258;11.362;2023-11-21T08:12:21;8.40;99.90
5605;DHT22;9297;47.258;11.362;2023-11-21T08:14:53;8.50;99.90
5605;DHT22;9297;47.258;11.362;2023-11-21T08:17:21;8.50;99.90
5605;DHT22;9297;47.258;11.362;2023-11-21T08:19:48;8.50;99.90
5605;DHT22;9297;47.258;11.362;2023-11-21T08:22:15;8.50;99.90
5605;DHT22;9297;47.258;11.362;2023-11-21T08:24:44;8.50;99.90
5605;DHT22;9297;47.258;11.362;2023-11-21T08:27:11;8.60;99.90
5605;DHT22;9297;47.258;11.362;2023-11-21T08:29:38;8.50;99.90
5605;DHT22;9297;47.258;11.362;2023-11-21T08:32:05;8.50;99.90
5605;DHT22;9297;47.258;11.362;2023-11-21T08:34:33;8.50;99.90
5605;DHT22;9297;47.258;11.362;2023-11-21T08:37:00;8.40;99.90
5605;DHT22;9297;47.258;11.362;2023-11-21T08:39:27;8.30;99.90
5605;DHT22;9297;47.258;11.362;2023-11-21T08:41:55;8.30;99.90
5605;DHT22;9297;47.258;11.362;2023-11-21T08:44:22;8.40;99.90
5605;DHT22;9297;47.258;11.362;2023-11-21T08:46:50;8.40;99.90
5605;DHT22;9297;47.258;11.362;2023-11-21T08:49:17;8.50;99.90
5605;DHT22;9297;47.258;11.362;2023-11-21T08:51:44;8.50;99.90
5605;DHT22;9297;47.258;11.362;2023-11-21T08:54:12;8.60;99.90
5605;DHT22;9297;47.258;11.362;2023-11-21T08:56:39;8.60;99.90
5605;DHT22;9297;47.258;11.362;2023-11-21T08:59:07;8.80;99.90
5605;DHT22;9297;47.258;11.362;2023-11-21T09:01:34;8.80;98.70
5605;DHT22;9297;47.258;11.362;2023-11-21T09:04:02;8.80;98.00
5605;DHT22;9297;47.258;11.362;2023-11-21T09:06:29;8.70;99.00
5605;DHT22;9297;47.258;11.362;2023-11-21T09:08:56;8.60;99.60
5605;DHT22;9297;47.258;11.362;2023-11-21T09:11:23;8.70;99.90
5605;DHT22;9297;47.258;11.362;2023-11-21T09:13:50;8.70;99.90
5605;DHT22;9297;47.258;11.362;2023-11-21T09:16:19;8.70;99.90
5605;DHT22;9297;47.258;11.362;2023-11-21T09:18:46;8.70;99.90
5605;DHT22;9297;47.258;11.362;2023-11-21T09:21:13;8.80;99.90
5605;DHT22;9297;47.258;11.362;2023-11-21T09:23:42;8.80;99.90
5605;DHT22;9297;47.258;11.362;2023-11-21T09:26:09;8.80;99.90
5605;DHT22;9297;47.258;11.362;2023-11-21T09:28:37;8.90;99.90
5605;DHT22;9297;47.258;11.362;2023-11-21T09:31:04;8.90;99.90
5605;DHT22;9297;47.258;11.362;2023-11-21T09:33:33;8.80;99.90
5605;DHT22;9297;47.258;11.362;2023-11-21T09:36:00;8.70;99.90
5605;DHT22;9297;47.258;11.362;2023-11-21T09:38:27;8.70;99.90
5605;DHT22;9297;47.258;11.362;2023-11-21T09:40:55;8.70;99.90
5605;DHT22;9297;47.258;11.362;2023-11-21T09:43:22;8.80;99.90
5605;DHT22;9297;47.258;11.362;2023-11-21T09:45:56;8.90;99.90
5605;DHT22;9297;47.258;11.362;2023-11-21T09:48:24;8.90;99.90
5605;DHT22;9297;47.258;11.362;2023-11-21T09:50:54;8.80;99.90
5605;DHT22;9297;47.258;11.362;2023-11-21T09:53:22;9.10;99.90
5605;DHT22;9297;47.258;11.362;2023-11-21T09:55:50;9.20;99.90
5605;DHT22;9297;47.258;11.362;2023-11-21T09:58:18;9.20;99.90
5605;DHT22;9297;47.258;11.362;2023-11-21T10:00:47;9.30;95.50
5605;DHT22;9297;47.258;11.362;2023-11-21T10:03:15;9.40;96.00
5605;DHT22;9297;47.258;11.362;2023-11-21T10:05:43;9.60;99.90
5605;DHT22;9297;47.258;11.362;2023-11-21T10:08:13;9.60;97.00
5605;DHT22;9297;47.258;11.362;2023-11-21T10:10:43;9.60;95.70
5605;DHT22;9297;47.258;11.362;2023-11-21T10:13:12;9.60;95.00
5605;DHT22;9297;47.258;11.362;2023-11-21T10:15:40;9.70;95.90
5605;DHT22;9297;47.258;11.362;2023-11-21T10:18:08;9.80;94.90
5605;DHT22;9297;47.258;11.362;2023-11-21T10:20:36;9.80;93.20
5605;DHT22;9297;47.258;11.362;2023-11-21T10:23:03;9.70;92.10
5605;DHT22;9297;47.258;11.362;2023-11-21T10:25:32;9.70;93.50
5605;DHT22;9297;47.258;11.362;2023-11-21T10:28:01;9.90;93.30
5605;DHT22;9297;47.258;11.362;2023-11-21T10:30:32;10.00;92.80
5605;DHT22;9297;47.258;11.362;2023-11-21T10:33:00;10.10;90.50
5605;DHT22;9297;47.258;11.362;2023-11-21T10:35:39;10.10;90.30
5605;DHT22;9297;47.258;11.362;2023-11-21T10:38:07;10.20;89.20
5605;DHT22;9297;47.258;11.362;2023-11-21T10:40:37;10.10;89.70
5605;DHT22;9297;47.258;11.362;2023-11-21T10:43:06;10.10;89.60
5605;DHT22;9297;47.258;11.362;2023-11-21T10:45:34;10.10;89.30
5605;DHT22;9297;47.258;11.362;2023-11-21T10:48:01;10.00;88.40
5605;DHT22;9297;47.258;11.362;2023-11-21T10:50:28;10.10;89.70
5605;DHT22;9297;47.258;11.362;2023-11-21T10:52:55;10.10;88.30
5605;DHT22;9297;47.258;11.362;2023-11-21T10:55:22;10.20;88.00
5605;DHT22;9297;47.258;11.362;2023-11-21T10:57:52;10.10;89.10
5605;DHT22;9297;47.258;11.362;2023-11-21T11:00:20;10.10;87.70
5605;DHT22;9297;47.258;11.362;2023-11-21T11:02:50;10.00;91.80
5605;DHT22;9297;47.258;11.362;2023-11-21T11:05:19;10.10;90.50
5605;DHT22;9297;47.258;11.362;2023-11-21T11:07:48;10.10;89.10
5605;DHT22;9297;47.258;11.362;2023-11-21T11:10:18;10.10;88.70
5605;DHT22;9297;47.258;11.362;2023-11-21T11:12:46;10.20;90.40
5605;DHT22;9297;47.258;11.362;2023-11-21T11:15:16;10.10;89.80
5605;DHT22;9297;47.258;11.362;2023-11-21T11:17:43;10.20;91.60
5605;DHT22;9297;47.258;11.362;2023-11-21T11:20:15;10.10;91.90
5605;DHT22;9297;47.258;11.362;2023-11-21T11:22:48;10.10;91.90
5605;DHT22;9297;47.258;11.362;2023-11-21T11:25:35;10.00;91.10
5605;DHT22;9297;47.258;11.362;2023-11-21T11:28:08;10.00;93.70
5605;DHT22;9297;47.258;11.362;2023-11-21T11:30:46;10.10;95.90
5605;DHT22;9297;47.258;11.362;2023-11-21T11:33:22;10.10;93.10
5605;DHT22;9297;47.258;11.362;2023-11-21T11:35:55;10.10;94.00
5605;DHT22;9297;47.258;11.362;2023-11-21T11:38:24;10.00;99.60
5605;DHT22;9297;47.258;11.362;2023-11-21T11:40:54;10.00;98.60
5605;DHT22;9297;47.258;11.362;2023-11-21T11:43:30;10.00;97.40
5605;DHT22;9297;47.258;11.362;2023-11-21T11:45:59;9.80;96.90
5605;DHT22;9297;47.258;11.362;2023-11-21T11:48:29;10.00;97.90
5605;DHT22;9297;47.258;11.362;2023-11-21T11:51:02;9.80;99.40
5605;DHT22;9297;47.258;11.362;2023-11-21T11:53:35;9.90;97.80
5605;DHT22;9297;47.258;11.362;2023-11-21T11:56:27;10.00;98.40
5605;DHT22;9297;47.258;11.362;2023-11-21T11:58:56;10.10;97.10
5605;DHT22;9297;47.258;11.362;2023-11-21T12:01:26;10.10;95.90
5605;DHT22;9297;47.258;11.362;2023-11-21T12:04:24;10.10;95.00
5605;DHT22;9297;47.258;11.362;2023-11-21T12:06:52;9.90;94.70
5605;DHT22;9297;47.258;11.362;2023-11-21T12:09:19;9.90;97.50
5605;DHT22;9297;47.258;11.362;2023-11-21T12:11:46;9.60;96.60
5605;DHT22;9297;47.258;11.362;2023-11-21T12:14:14;9.60;99.90
5605;DHT22;9297;47.258;11.362;2023-11-21T12:16:43;9.70;99.90
5605;DHT22;9297;47.258;11.362;2023-11-21T12:19:11;9.80;99.90
5605;DHT22;9297;47.258;11.362;2023-11-21T12:21:39;9.90;99.90
5605;DHT22;9297;47.258;11.362;2023-11-21T12:24:06;9.90;99.90
5605;DHT22;9297;47.258;11.362;2023-11-21T12:26:34;10.00;99.90
5605;DHT22;9297;47.258;11.362;2023-11-21T12:29:01;10.00;99.90
5605;DHT22;9297;47.258;11.362;2023-11-21T12:31:29;10.10;99.90
5605;DHT22;9297;47.258;11.362;2023-11-21T12:33:57;10.10;99.90
5605;DHT22;9297;47.258;11.362;2023-11-21T12:36:24;10.10;99.90
5605;DHT22;9297;47.258;11.362;2023-11-21T12:38:51;10.00;99.90
5605;DHT22;9297;47.258;11.362;2023-11-21T12:41:19;10.10;99.90
5605;DHT22;9297;47.258;11.362;2023-11-21T12:43:46;10.20;99.90
5605;DHT22;9297;47.258;11.362;2023-11-21T12:46:14;10.20;99.10
5605;DHT22;9297;47.258;11.362;2023-11-21T12:48:43;10.30;99.30
5605;DHT22;9297;47.258;11.362;2023-11-21T12:51:12;10.30;99.90
5605;DHT22;9297;47.258;11.362;2023-11-21T12:53:39;10.30;99.90
5605;DHT22;9297;47.258;11.362;2023-11-21T12:56:09;10.00;95.50
5605;DHT22;9297;47.258;11.362;2023-11-21T12:58:37;9.70;93.70
5605;DHT22;9297;47.258;11.362;2023-11-21T13:01:04;9.80;96.90
5605;DHT22;9297;47.258;11.362;2023-11-21T13:03:32;9.60;95.50
5605;DHT22;9297;47.258;11.362;2023-11-21T13:05:59;9.60;97.80
5605;DHT22;9297;47.258;11.362;2023-11-21T13:08:27;9.30;96.60
5605;DHT22;9297;47.258;11.362;2023-11-21T13:10:56;9.10;97.00
5605;DHT22;9297;47.258;11.362;2023-11-21T13:13:25;9.10;97.50
5605;DHT22;9297;47.258;11.362;2023-11-21T13:15:55;9.20;97.40
5605;DHT22;9297;47.258;11.362;2023-11-21T13:18:22;9.10;97.90
5605;DHT22;9297;47.258;11.362;2023-11-21T13:20:50;9.20;98.90
5605;DHT22;9297;47.258;11.362;2023-11-21T13:23:17;9.20;99.00
5605;DHT22;9297;47.258;11.362;2023-11-21T13:25:46;9.10;99.90
5605;DHT22;9297;47.258;11.362;2023-11-21T13:28:23;9.10;99.40
5605;DHT22;9297;47.258;11.362;2023-11-21T13:30:50;9.20;99.90
5605;DHT22;9297;47.258;11.362;2023-11-21T13:33:17;9.30;99.90
5605;DHT22;9297;47.258;11.362;2023-11-21T13:35:46;9.30;99.90
5605;DHT22;9297;47.258;11.362;2023-11-21T13:38:15;9.00;98.50
5605;DHT22;9297;47.258;11.362;2023-11-21T13:40:48;9.10;99.90
5605;DHT22;9297;47.258;11.362;2023-11-21T13:43:16;9.20;99.90
5605;DHT22;9297;47.258;11.362;2023-11-21T13:45:44;9.20;99.50
5605;DHT22;9297;47.258;11.362;2023-11-21T13:48:13;9.10;98.90
5605;DHT22;9297;47.258;11.362;2023-11-21T13:50:40;9.10;99.30
5605;DHT22;9297;47.258;11.362;2023-11-21T13:53:07;9.30;99.90
5605;DHT22;9297;47.258;11.362;2023-11-21T13:55:35;9.30;99.90
5605;DHT22;9297;47.258;11.362;2023-11-21T13:58:03;9.40;99.90
5605;DHT22;9297;47.258;11.362;2023-11-21T14:00:30;9.40;99.80
5605;DHT22;9297;47.258;11.362;2023-11-21T14:02:57;9.40;99.10
5605;DHT22;9297;47.258;11.362;2023-11-21T14:05:25;9.40;99.90
5605;DHT22;9297;47.258;11.362;2023-11-21T14:07:52;9.30;98.10
5605;DHT22;9297;47.258;11.362;2023-11-21T14:10:19;9.30;96.60
5605;DHT22;9297;47.258;11.362;2023-11-21T14:12:46;9.30;97.10
5605;DHT22;9297;47.258;11.362;2023-11-21T14:15:15;9.30;99.00
5605;DHT22;9297;47.258;11.362;2023-11-21T14:17:42;9.30;98.90
5605;DHT22;9297;47.258;11.362;2023-11-21T14:20:10;9.40;96.70
5605;DHT22;9297;47.258;11.362;2023-11-21T14:22:37;9.40;97.60
5605;DHT22;9297;47.258;11.362;2023-11-21T14:25:05;9.40;98.30
5605;DHT22;9297;47.258;11.362;2023-11-21T14:27:32;9.30;98.40
5605;DHT22;9297;47.258;11.362;2023-11-21T14:30:02;9.30;98.80
5605;DHT22;9297;47.258;11.362;2023-11-21T14:32:31;9.30;98.90
5605;DHT22;9297;47.258;11.362;2023-11-21T14:34:58;9.40;98.10
5605;DHT22;9297;47.258;11.362;2023-11-21T14:37:26;9.40;98.40
5605;DHT22;9297;47.258;11.362;2023-11-21T14:39:53;9.40;97.70
5605;DHT22;9297;47.258;11.362;2023-11-21T14:42:20;9.40;98.80
5605;DHT22;9297;47.258;11.362;2023-11-21T14:44:47;9.40;98.50
5605;DHT22;9297;47.258;11.362;2023-11-21T14:47:14;9.30;98.80
5605;DHT22;9297;47.258;11.362;2023-11-21T14:49:44;9.40;99.30
5605;DHT22;9297;47.258;11.362;2023-11-21T14:52:11;9.30;97.60
5605;DHT22;9297;47.258;11.362;2023-11-21T14:54:38;9.30;98.10
5605;DHT22;9297;47.258;11.362;2023-11-21T14:57:06;9.30;99.10
5605;DHT22;9297;47.258;11.362;2023-11-21T14:59:33;9.30;98.20
5605;DHT22;9297;47.258;11.362;2023-11-21T15:02:01;9.30;98.60
5605;DHT22;9297;47.258;11.362;2023-11-21T15:04:28;9.30;98.50
5605;DHT22;9297;47.258;11.362;2023-11-21T15:06:58;9.30;98.50
5605;DHT22;9297;47.258;11.362;2023-11-21T15:09:25;9.30;98.90
5605;DHT22;9297;47.258;11.362;2023-11-21T15:11:52;9.30;99.20
5605;DHT22;9297;47.258;11.362;2023-11-21T15:14:20;9.30;99.10
5605;DHT22;9297;47.258;11.362;2023-11-21T15:16:47;9.30;99.00
5605;DHT22;9297;47.258;11.362;2023-11-21T15:19:14;9.30;98.60
5605;DHT22;9297;47.258;11.362;2023-11-21T15:21:41;9.30;99.70
5605;DHT22;9297;47.258;11.362;2023-11-21T15:24:10;9.20;99.90
5605;DHT22;9297;47.258;11.362;2023-11-21T15:26:37;9.30;99.90
5605;DHT22;9297;47.258;11.362;2023-11-21T15:29:04;9.20;99.90
5605;DHT22;9297;47.258;11.362;2023-11-21T15:31:34;9.30;99.90
5605;DHT22;9297;47.258;11.362;2023-11-21T15:34:01;9.20;99.90
5605;DHT22;9297;47.258;11.362;2023-11-21T15:36:28;9.20;99.90
5605;DHT22;9297;47.258;11.362;2023-11-21T15:38:55;9.20;99.90
5605;DHT22;9297;47.258;11.362;2023-11-21T15:41:24;9.20;99.90
5605;DHT22;9297;47.258;11.362;2023-11-21T15:43:51;9.20;99.90
5605;DHT22;9297;47.258;11.362;2023-11-21T15:46:19;9.20;99.90
5605;DHT22;9297;47.258;11.362;2023-11-21T15:48:46;9.20;99.90
5605;DHT22;9297;47.258;11.362;2023-11-21T15:51:13;9.20;99.90
5605;DHT22;9297;47.258;11.362;2023-11-21T15:53:40;9.20;99.90
5605;DHT22;9297;47.258;11.362;2023-11-21T15:56:08;9.10;99.90
5605;DHT22;9297;47.258;11.362;2023-11-21T15:58:39;9.00;99.90
5605;DHT22;9297;47.258;11.362;2023-11-21T16:01:06;9.10;99.90
5605;DHT22;9297;47.258;11.362;2023-11-21T16:03:33;9.10;99.90
5605;DHT22;9297;47.258;11.362;2023-11-21T16:06:00;9.10;99.90
5605;DHT22;9297;47.258;11.362;2023-11-21T16:08:27;9.10;99.90